Current Weather Conditions: station 46183

sailwx.info

Wind from 270 at 9 knots gusting 13

Wave height 1.2 meters (3 feet), 11 second period

Air temperature 7.1° C
Water temperature 8.4° C

Last reported at 2017-Nov-23 17:00 UTC.
Time now 2017-Nov-23 18:23 UTC

Location: N 53°36' W 131°06'.
View on Google Maps.

See reports from other nearby stations

  
Tides and Currents Weather Stations Pressure Air Temp Water Temp Dewpoint Dewpoint Depression Visibility Wind Speed Wind Dir Waves Ship Positions
date/time (UTC)wind fromknots sea level pressurealtimeterstation pressurevisibilityair tempwater tempwave heightnotes
2017-Nov-23 17:00 270 9 gusting 13 7.1 8.4 1.2
2017-Nov-23 16:00 270 9 gusting 11 6.8 8.4 1.3
2017-Nov-23 15:00 290 13 gusting 17 7.1 8.4 1.4
2017-Nov-23 14:00 300 13 gusting 15 6.7 8.4 1.4
2017-Nov-23 13:00 310 11 gusting 13 6.7 8.4 1.5
2017-Nov-23 12:00 320 11 gusting 15 7.2 8.4 1.7
2017-Nov-23 11:00 280 11 gusting 13 7.9 8.5 1.5
2017-Nov-23 10:00 210 9 gusting 9 8.0 8.4 1.7
2017-Nov-23 09:00 210 7 gusting 9 7.8 8.4 1.9
2017-Nov-23 08:00 190 7 gusting 11 7.9 8.4 2.0
2017-Nov-23 07:00 170 7 gusting 9 8.0 8.4 2.0
2017-Nov-23 06:00 150 9 gusting 13 7.7 8.4 1.9
2017-Nov-23 05:00 160 9 gusting 11 7.7 8.4 1.9
2017-Nov-23 04:00 190 9 gusting 11 7.9 8.4 2.0
2017-Nov-23 03:00 180 13 gusting 15 8.3 8.5 2.1
2017-Nov-23 02:00 170 11 gusting 15 8.6 8.5 2.5
2017-Nov-23 01:00 160 11 gusting 15 8.6 8.5 2.0
2017-Nov-23 00:00 180 9 gusting 11 8.6 8.6 2.2
2017-Nov-22 23:00 150 7 gusting 9 8.7 8.6 2.2
2017-Nov-22 22:00 150 7 gusting 9 8.7 8.7 2.1
2017-Nov-22 21:00 8.8 8.6 2.0
2017-Nov-22 20:00 8.8 8.6 2.1
2017-Nov-22 19:00 190 8.8 8.6 2.0
2017-Nov-22 18:00 170 9.0 8.5 2.2
2017-Nov-22 17:00 150 9.2 8.5 2.1
2017-Nov-22 16:00 150 9.3 8.5 2.2
2017-Nov-22 15:00 150 9.6 8.5 2.4
2017-Nov-22 14:00 140 9.4 8.5 2.5
2017-Nov-22 13:00 140 9.1 8.5 2.7
2017-Nov-22 12:00 140 1 gusting 3 9.1 8.5 2.8
2017-Nov-22 11:00 140 1 gusting 3 9.2 8.5 2.5
2017-Nov-22 10:00 150 8.9 8.5 2.6
2017-Nov-22 02:00 050 13 gusting 15 5.8 8.4 1.4
2017-Nov-22 01:00 060 11 gusting 13 5.9 8.4 1.6
2017-Nov-22 00:00 040 11 gusting 15 5.8 8.4 1.8
2017-Nov-21 23:00 090 9 gusting 15 6.9 8.4 1.7
2017-Nov-21 22:00 040 13 gusting 15 7.2 8.4 1.7
2017-Nov-21 21:00 040 17 gusting 19 7.0 8.4 1.7
2017-Nov-21 20:00 040 15 gusting 19 7.3 8.4 1.7
2017-Nov-21 19:00 050 11 gusting 15 7.3 8.5 2.1
2017-Nov-21 18:00 090 9 gusting 11 7.2 8.5 2.2